createdAt,value
2022-12-25T00:00:03.852Z,46.5
2022-12-25T00:01:03.903Z,46.5
2022-12-25T00:02:03.842Z,46.6
2022-12-25T00:03:03.884Z,46.7
2022-12-25T00:04:04.066Z,46.8
2022-12-25T00:05:03.808Z,46.8
2022-12-25T00:06:03.853Z,46.8
2022-12-25T00:07:03.835Z,46.9
2022-12-25T00:08:04.185Z,47.0
2022-12-25T00:09:03.825Z,47.0
2022-12-25T00:10:03.885Z,47.1
2022-12-25T00:11:03.864Z,47.2
2022-12-25T00:12:03.844Z,47.2
2022-12-25T00:13:03.848Z,47.3
2022-12-25T00:14:03.830Z,47.2
2022-12-25T00:15:03.847Z,47.3
2022-12-25T00:16:03.870Z,47.3
2022-12-25T00:17:03.814Z,47.3
2022-12-25T00:18:03.841Z,47.3
2022-12-25T00:19:03.868Z,47.3
2022-12-25T00:20:03.879Z,47.4
2022-12-25T00:21:03.811Z,47.4
2022-12-25T00:22:03.865Z,47.4
2022-12-25T00:23:03.872Z,47.4
2022-12-25T00:24:03.838Z,47.4
2022-12-25T00:25:03.894Z,47.4
2022-12-25T00:26:03.844Z,47.4
2022-12-25T00:27:03.823Z,47.3
2022-12-25T00:28:03.842Z,47.4
2022-12-25T00:29:03.832Z,47.4
2022-12-25T00:30:03.901Z,47.4
2022-12-25T00:31:03.925Z,47.4
2022-12-25T00:32:03.856Z,47.4
2022-12-25T00:33:03.884Z,47.4
2022-12-25T00:34:03.895Z,47.4
2022-12-25T00:35:03.977Z,47.5
2022-12-25T00:37:54.019Z,48.9
2022-12-25T00:38:03.767Z,48.6
2022-12-25T00:39:03.694Z,47.8
2022-12-25T00:40:03.745Z,47.7
2022-12-25T00:41:03.759Z,47.7
2022-12-25T00:42:03.801Z,47.7
2022-12-25T00:43:03.777Z,47.7
2022-12-25T00:44:03.730Z,47.7
2022-12-25T00:45:03.717Z,47.7
2022-12-25T00:46:03.890Z,47.7
2022-12-25T00:47:03.749Z,47.7
2022-12-25T00:48:03.796Z,47.7
2022-12-25T00:49:03.837Z,47.8
2022-12-25T00:50:03.794Z,47.8
2022-12-25T00:51:03.750Z,47.8
2022-12-25T00:52:03.738Z,47.9
2022-12-25T00:53:03.750Z,47.8
2022-12-25T00:54:03.742Z,47.9
2022-12-25T00:55:03.753Z,47.9
2022-12-25T00:56:03.745Z,47.9
2022-12-25T00:57:03.704Z,48.0
2022-12-25T00:58:03.779Z,48.0
2022-12-25T00:59:03.743Z,48.1
2022-12-25T01:00:03.735Z,48.1
2022-12-25T01:01:03.789Z,48.1
2022-12-25T01:02:03.820Z,48.1
2022-12-25T01:03:03.864Z,48.1
2022-12-25T01:04:04.278Z,48.2
2022-12-25T01:05:03.710Z,48.2
2022-12-25T01:06:03.781Z,48.2
2022-12-25T01:07:03.734Z,48.2
2022-12-25T01:08:03.727Z,48.2
2022-12-25T01:09:03.722Z,48.2
2022-12-25T01:10:03.757Z,48.2
2022-12-25T01:11:03.774Z,48.2
2022-12-25T01:12:03.795Z,48.3
2022-12-25T01:13:03.715Z,48.3
2022-12-25T01:14:03.713Z,48.4
2022-12-25T01:15:03.725Z,48.3
2022-12-25T01:16:03.822Z,48.4
2022-12-25T01:17:03.757Z,48.4
2022-12-25T01:18:07.760Z,48.4
2022-12-25T01:19:03.793Z,48.5
2022-12-25T01:20:03.757Z,48.5
2022-12-25T01:21:03.710Z,48.5
2022-12-25T01:22:03.759Z,48.5
2022-12-25T01:23:03.764Z,48.6
2022-12-25T01:24:03.751Z,48.6
2022-12-25T01:25:03.727Z,48.6
2022-12-25T01:27:37.465Z,48.7
2022-12-25T01:27:41.469Z,50.6
2022-12-25T01:28:03.752Z,49.1
2022-12-25T01:29:03.784Z,48.6
2022-12-25T01:30:03.753Z,48.6
2022-12-25T01:31:03.728Z,48.6
2022-12-25T01:32:03.756Z,48.6
2022-12-25T01:33:03.738Z,48.6
2022-12-25T01:34:03.760Z,48.6
2022-12-25T01:35:03.770Z,48.6
2022-12-25T01:36:03.749Z,48.7
2022-12-25T01:37:03.712Z,48.7
2022-12-25T01:38:03.734Z,48.7
2022-12-25T01:39:03.749Z,48.7
2022-12-25T01:40:03.748Z,48.8
2022-12-25T01:41:03.746Z,48.8
2022-12-25T01:42:03.746Z,48.8
2022-12-25T01:43:03.734Z,48.8
2022-12-25T01:44:03.770Z,48.9
2022-12-25T01:45:03.730Z,48.9
2022-12-25T01:46:03.856Z,48.9
2022-12-25T01:47:03.753Z,48.9
2022-12-25T01:48:03.729Z,49.0
2022-12-25T01:49:03.732Z,49.0
2022-12-25T01:50:03.751Z,49.0
2022-12-25T01:51:03.760Z,49.0
2022-12-25T01:52:03.771Z,49.0
2022-12-25T01:53:03.738Z,49.1
2022-12-25T01:54:03.748Z,49.0
2022-12-25T01:55:03.722Z,49.1
2022-12-25T01:56:03.749Z,49.1
2022-12-25T01:57:03.725Z,49.1
2022-12-25T01:58:03.773Z,49.1
2022-12-25T01:59:03.758Z,49.2
2022-12-25T02:00:03.762Z,49.2
2022-12-25T02:01:03.767Z,49.2
2022-12-25T02:02:03.956Z,49.2
2022-12-25T02:03:03.788Z,49.2
2022-12-25T02:04:03.752Z,49.2
2022-12-25T02:05:04.025Z,49.2
2022-12-25T02:06:03.792Z,49.2
2022-12-25T02:07:03.741Z,49.3
2022-12-25T02:08:03.792Z,49.3
2022-12-25T02:09:03.735Z,49.3
2022-12-25T02:10:03.787Z,49.3
2022-12-25T02:11:03.806Z,49.3
2022-12-25T02:12:03.762Z,49.4
2022-12-25T02:13:03.744Z,49.4
2022-12-25T02:14:03.768Z,49.4
2022-12-25T02:15:06.075Z,49.5
2022-12-25T02:16:03.832Z,49.4
2022-12-25T02:17:03.889Z,49.5
2022-12-25T02:18:10.695Z,49.5
2022-12-25T02:19:03.743Z,49.6
2022-12-25T02:20:03.793Z,49.5
2022-12-25T02:21:03.750Z,49.6
2022-12-25T02:22:03.769Z,49.6
2022-12-25T02:23:03.777Z,49.6
2022-12-25T02:24:03.773Z,49.6
2022-12-25T02:25:03.775Z,49.6
2022-12-25T02:26:03.808Z,49.6
2022-12-25T02:27:03.765Z,49.6
2022-12-25T02:28:03.762Z,49.6
2022-12-25T02:29:03.785Z,49.7
2022-12-25T02:30:03.766Z,49.7
2022-12-25T02:31:03.729Z,49.7
2022-12-25T02:32:03.817Z,49.6
2022-12-25T02:33:03.734Z,49.7
2022-12-25T02:34:03.779Z,49.7
2022-12-25T02:35:03.800Z,49.7
2022-12-25T02:36:03.814Z,49.7
2022-12-25T02:37:03.760Z,49.7
2022-12-25T02:38:03.769Z,49.7
2022-12-25T02:39:03.776Z,49.7
2022-12-25T02:40:03.783Z,49.8
2022-12-25T02:41:03.796Z,49.7
2022-12-25T02:43:07.992Z,49.8
2022-12-25T02:43:11.985Z,51.8
2022-12-25T02:44:03.976Z,50.0
2022-12-25T02:45:03.765Z,49.9
2022-12-25T02:46:03.834Z,49.9
2022-12-25T02:47:03.791Z,49.8
2022-12-25T02:48:03.765Z,49.8
2022-12-25T02:49:03.755Z,49.8
2022-12-25T02:50:03.757Z,49.8
2022-12-25T02:51:03.752Z,49.8
2022-12-25T02:52:03.806Z,49.8
2022-12-25T02:53:03.826Z,49.9
2022-12-25T02:54:03.821Z,49.8
2022-12-25T02:55:03.772Z,49.9
2022-12-25T02:56:03.786Z,49.9
2022-12-25T02:57:03.758Z,49.8
2022-12-25T02:58:03.768Z,49.9
2022-12-25T02:59:03.809Z,49.8
2022-12-25T03:00:03.786Z,49.8
2022-12-25T03:01:03.800Z,49.9
2022-12-25T03:02:10.639Z,50.0
2022-12-25T03:03:04.279Z,49.9
2022-12-25T03:04:04.224Z,49.9
2022-12-25T03:05:04.209Z,49.9
2022-12-25T03:06:04.204Z,49.9
2022-12-25T03:07:04.222Z,49.9
2022-12-25T03:08:04.200Z,49.9
2022-12-25T03:09:04.323Z,49.9
2022-12-25T03:10:04.337Z,49.9
2022-12-25T03:11:04.385Z,49.9
2022-12-25T03:12:04.322Z,49.9
2022-12-25T03:13:04.333Z,49.9
2022-12-25T03:14:04.297Z,49.9
2022-12-25T03:15:04.420Z,49.9
2022-12-25T03:16:04.278Z,49.9
2022-12-25T03:17:04.344Z,49.9
2022-12-25T03:18:04.188Z,49.9
2022-12-25T03:19:04.258Z,49.9
2022-12-25T03:20:04.193Z,49.9
2022-12-25T03:21:04.217Z,49.9
2022-12-25T03:22:04.220Z,49.9
2022-12-25T03:23:04.226Z,49.9
2022-12-25T03:24:04.191Z,50.0
2022-12-25T03:25:04.225Z,50.0
2022-12-25T03:26:04.198Z,49.9
2022-12-25T03:27:04.214Z,49.9
2022-12-25T03:28:04.253Z,49.9
2022-12-25T03:29:04.228Z,49.9
2022-12-25T03:30:04.199Z,49.9
2022-12-25T03:31:04.332Z,49.9
2022-12-25T03:32:04.209Z,49.9
2022-12-25T03:33:23.202Z,49.9
2022-12-25T03:34:04.226Z,50.4
2022-12-25T03:35:04.230Z,50.0
2022-12-25T03:36:04.726Z,50.0
2022-12-25T03:37:04.222Z,50.0
2022-12-25T03:38:04.195Z,50.0
2022-12-25T03:39:04.227Z,50.0
2022-12-25T03:40:04.244Z,49.9
2022-12-25T03:41:04.259Z,50.0
2022-12-25T03:42:04.200Z,49.9
2022-12-25T03:43:04.240Z,50.0
2022-12-25T03:44:04.204Z,50.0
2022-12-25T03:45:04.231Z,50.0
2022-12-25T03:46:04.251Z,50.0
2022-12-25T03:47:04.228Z,50.0
2022-12-25T03:49:42.644Z,50.0
2022-12-25T03:49:46.655Z,52.3
2022-12-25T03:50:04.215Z,50.9
2022-12-25T03:51:04.281Z,50.2
2022-12-25T03:52:04.247Z,50.1
2022-12-25T03:53:04.244Z,50.1
2022-12-25T03:54:04.830Z,50.1
2022-12-25T03:55:04.229Z,50.1
2022-12-25T03:56:04.212Z,50.1
2022-12-25T03:57:04.238Z,50.1
2022-12-25T03:58:04.263Z,50.1
2022-12-25T03:59:04.223Z,50.0
2022-12-25T04:00:04.255Z,50.0
2022-12-25T04:01:04.353Z,50.0
2022-12-25T04:02:04.367Z,50.1
2022-12-25T04:03:05.150Z,50.0
2022-12-25T04:04:04.263Z,50.1
2022-12-25T04:05:04.225Z,50.0
2022-12-25T04:06:04.312Z,50.1
2022-12-25T04:07:04.433Z,50.1
2022-12-25T04:08:04.395Z,50.1
2022-12-25T04:09:04.350Z,50.0
2022-12-25T04:10:04.407Z,50.1
2022-12-25T04:11:04.237Z,50.0
2022-12-25T04:12:04.248Z,50.1
2022-12-25T04:13:04.235Z,50.1
2022-12-25T04:14:04.293Z,50.1
2022-12-25T04:15:04.213Z,50.1
2022-12-25T04:16:04.316Z,50.1
2022-12-25T04:17:04.219Z,50.1
2022-12-25T04:18:04.268Z,50.1
2022-12-25T04:19:04.254Z,50.1
2022-12-25T04:20:04.261Z,50.1
2022-12-25T04:21:04.221Z,50.1
2022-12-25T04:22:04.292Z,50.1
2022-12-25T04:23:04.234Z,50.1
2022-12-25T04:24:04.246Z,50.1
2022-12-25T04:25:04.228Z,50.1
2022-12-25T04:26:04.242Z,50.1
2022-12-25T04:27:04.228Z,50.1
2022-12-25T04:28:04.316Z,50.1
2022-12-25T04:29:04.256Z,50.2
2022-12-25T04:30:04.259Z,50.1
2022-12-25T04:31:04.258Z,50.1
2022-12-25T04:32:04.261Z,50.2
2022-12-25T04:33:04.245Z,50.1
2022-12-25T04:34:04.307Z,50.1
2022-12-25T04:35:04.229Z,50.2
2022-12-25T04:36:04.265Z,50.1
2022-12-25T04:37:04.247Z,50.2
2022-12-25T04:38:04.250Z,50.1
2022-12-25T04:39:04.222Z,50.2
2022-12-25T04:40:04.293Z,50.2
2022-12-25T04:41:04.235Z,50.2
2022-12-25T04:42:04.255Z,50.2
2022-12-25T04:43:04.220Z,50.2
2022-12-25T04:44:04.258Z,50.2
2022-12-25T04:46:54.606Z,51.5
2022-12-25T04:47:11.451Z,51.3
2022-12-25T04:48:04.855Z,50.5
2022-12-25T04:49:04.139Z,50.3
2022-12-25T04:50:04.261Z,50.3
2022-12-25T04:51:04.180Z,50.3
2022-12-25T04:52:04.192Z,50.2
2022-12-25T04:53:04.147Z,50.3
2022-12-25T04:54:04.178Z,50.3
2022-12-25T04:55:04.191Z,50.3
2022-12-25T04:56:04.187Z,50.3
2022-12-25T04:57:04.142Z,50.2
2022-12-25T04:58:04.224Z,50.1
2022-12-25T04:59:04.168Z,50.0
2022-12-25T05:00:04.180Z,49.8
2022-12-25T05:01:04.151Z,49.6
2022-12-25T05:02:04.243Z,49.4
2022-12-25T05:03:04.288Z,49.2
2022-12-25T05:04:04.201Z,49.0
2022-12-25T05:05:04.160Z,48.8
2022-12-25T05:06:04.211Z,48.8
2022-12-25T05:07:04.167Z,48.7
2022-12-25T05:08:04.184Z,48.6
2022-12-25T05:09:04.181Z,48.6
2022-12-25T05:10:16.583Z,48.5
2022-12-25T05:11:04.317Z,48.5
2022-12-25T05:12:04.167Z,48.3
2022-12-25T05:13:04.197Z,48.1
2022-12-25T05:14:04.165Z,48.1
2022-12-25T05:15:04.229Z,48.0
2022-12-25T05:16:04.229Z,47.9
2022-12-25T05:17:04.162Z,47.9
2022-12-25T05:18:04.163Z,47.8
2022-12-25T05:19:04.239Z,47.7
2022-12-25T05:20:04.394Z,47.6
2022-12-25T05:21:04.192Z,47.4
2022-12-25T05:22:04.178Z,47.2
2022-12-25T05:23:04.246Z,47.3
2022-12-25T05:24:04.173Z,47.2
2022-12-25T05:25:04.194Z,47.3
2022-12-25T05:26:04.148Z,47.2
2022-12-25T05:27:04.219Z,47.2
2022-12-25T05:28:04.192Z,47.2
2022-12-25T05:29:04.219Z,47.1
2022-12-25T05:30:04.161Z,47.0
2022-12-25T05:31:04.284Z,47.1
2022-12-25T05:32:04.165Z,47.1
2022-12-25T05:33:04.183Z,47.0
2022-12-25T05:34:04.215Z,46.9
2022-12-25T05:35:04.189Z,46.9
2022-12-25T05:36:04.154Z,46.8
2022-12-25T05:37:04.170Z,46.7
2022-12-25T05:38:04.158Z,46.7
2022-12-25T05:39:04.183Z,46.7
2022-12-25T05:40:04.197Z,46.6
2022-12-25T05:41:04.192Z,46.5
2022-12-25T05:42:04.156Z,46.5
2022-12-25T05:43:04.192Z,46.5
2022-12-25T05:45:32.033Z,46.4
2022-12-25T05:45:36.381Z,48.3
2022-12-25T05:46:04.503Z,46.8
2022-12-25T05:47:04.337Z,46.4
2022-12-25T05:48:04.181Z,46.3
2022-12-25T05:49:04.203Z,46.2
2022-12-25T05:50:04.187Z,46.2
2022-12-25T05:51:04.198Z,46.1
2022-12-25T05:52:04.172Z,46.1
2022-12-25T05:53:08.023Z,46.0
2022-12-25T05:54:04.400Z,46.0
2022-12-25T05:55:04.234Z,46.0
2022-12-25T05:56:04.685Z,45.9
2022-12-25T05:57:04.225Z,45.9
2022-12-25T05:58:04.175Z,45.9
2022-12-25T05:59:04.200Z,45.9
2022-12-25T06:00:04.435Z,45.8
2022-12-25T06:01:04.211Z,45.8
2022-12-25T06:02:04.250Z,45.9
2022-12-25T06:03:04.339Z,45.8
2022-12-25T06:04:07.078Z,45.8
2022-12-25T06:05:04.200Z,45.7
2022-12-25T06:06:04.172Z,45.7
2022-12-25T06:07:04.308Z,45.6
2022-12-25T06:08:04.190Z,45.6
2022-12-25T06:09:04.252Z,45.6
2022-12-25T06:10:04.167Z,45.5
2022-12-25T06:11:04.207Z,45.5
2022-12-25T06:12:04.237Z,45.5
2022-12-25T06:13:04.191Z,45.5
2022-12-25T06:14:04.179Z,45.5
2022-12-25T06:15:04.261Z,45.5
2022-12-25T06:16:04.235Z,45.5
2022-12-25T06:17:04.363Z,45.6
2022-12-25T06:18:04.173Z,45.6
2022-12-25T06:19:04.231Z,45.6
2022-12-25T06:20:04.178Z,45.6
2022-12-25T06:21:04.235Z,45.6
2022-12-25T06:22:04.191Z,45.7
2022-12-25T06:23:04.193Z,45.7
2022-12-25T06:24:04.226Z,45.8
2022-12-25T06:25:04.261Z,45.8
2022-12-25T06:26:04.414Z,45.8
2022-12-25T06:27:04.246Z,45.8
2022-12-25T06:28:04.187Z,45.8
2022-12-25T06:29:04.227Z,45.9
2022-12-25T06:30:04.188Z,45.9
2022-12-25T06:31:04.259Z,45.9
2022-12-25T06:32:04.261Z,45.9
2022-12-25T06:33:04.249Z,46.0
2022-12-25T06:34:04.179Z,45.9
2022-12-25T06:35:04.189Z,46.0
2022-12-25T06:36:04.180Z,46.0
2022-12-25T06:37:04.214Z,46.0
2022-12-25T06:38:04.213Z,46.0
2022-12-25T06:39:04.243Z,46.0
2022-12-25T06:40:04.184Z,46.0
2022-12-25T06:41:04.216Z,45.9
2022-12-25T06:42:04.188Z,45.8
2022-12-25T06:43:04.251Z,45.8
2022-12-25T06:44:04.194Z,45.8
2022-12-25T06:45:04.257Z,45.7
2022-12-25T06:46:04.292Z,45.6
2022-12-25T06:48:58.499Z,46.8
2022-12-25T06:49:05.055Z,46.8
2022-12-25T06:50:04.939Z,45.7
2022-12-25T06:51:04.151Z,45.6
2022-12-25T06:52:04.103Z,45.6
2022-12-25T06:53:04.136Z,45.5
2022-12-25T06:54:04.310Z,45.4
2022-12-25T06:55:04.129Z,45.4
2022-12-25T06:56:04.098Z,45.3
2022-12-25T06:57:04.158Z,45.3
2022-12-25T06:58:04.099Z,45.2
2022-12-25T06:59:04.157Z,45.1
2022-12-25T07:00:04.253Z,45.1
2022-12-25T07:01:04.244Z,45.1
2022-12-25T07:02:04.207Z,45.1
2022-12-25T07:03:04.299Z,45.1
2022-12-25T07:04:04.111Z,45.1
2022-12-25T07:05:04.156Z,45.1
2022-12-25T07:06:04.106Z,45.1
2022-12-25T07:07:08.781Z,45.1
2022-12-25T07:08:04.101Z,45.1
2022-12-25T07:09:04.182Z,45.0
2022-12-25T07:10:04.130Z,45.0
2022-12-25T07:11:04.151Z,45.1
2022-12-25T07:12:04.126Z,45.1
2022-12-25T07:13:04.160Z,45.1
2022-12-25T07:14:04.126Z,45.1
2022-12-25T07:15:04.189Z,45.1
2022-12-25T07:16:04.192Z,45.2
2022-12-25T07:17:04.156Z,45.1
2022-12-25T07:18:04.115Z,45.2
2022-12-25T07:19:04.136Z,45.2
2022-12-25T07:20:04.122Z,45.2
2022-12-25T07:21:04.174Z,45.2
2022-12-25T07:22:04.110Z,45.2
2022-12-25T07:23:04.150Z,45.3
2022-12-25T07:24:04.157Z,45.3
2022-12-25T07:25:04.140Z,45.3
2022-12-25T07:26:04.145Z,45.4
2022-12-25T07:27:04.158Z,45.4
2022-12-25T07:28:04.137Z,45.4
2022-12-25T07:29:04.154Z,45.4
2022-12-25T07:30:04.738Z,45.5
2022-12-25T07:31:05.072Z,45.5
2022-12-25T07:32:04.179Z,45.5
2022-12-25T07:33:04.726Z,45.6
2022-12-25T07:34:04.107Z,45.5
2022-12-25T07:35:04.142Z,45.6
2022-12-25T07:36:04.139Z,45.6
2022-12-25T07:37:04.150Z,45.6
2022-12-25T07:38:04.132Z,45.6
2022-12-25T07:39:04.165Z,45.5
2022-12-25T07:40:04.119Z,45.5
2022-12-25T07:41:04.151Z,45.4
2022-12-25T07:42:04.117Z,45.3
2022-12-25T07:43:04.199Z,45.2
2022-12-25T07:44:04.112Z,45.2
2022-12-25T07:45:04.195Z,45.2
2022-12-25T07:46:04.156Z,45.2
2022-12-25T07:47:04.181Z,45.1
2022-12-25T07:48:05.902Z,45.1
2022-12-25T07:49:04.137Z,45.1
2022-12-25T07:50:04.109Z,45.0
2022-12-25T07:51:04.219Z,44.9
2022-12-25T07:52:10.856Z,45.0
2022-12-25T07:53:11.377Z,44.9
2022-12-25T07:54:06.836Z,44.9
2022-12-25T07:55:04.197Z,44.9
2022-12-25T07:56:04.023Z,44.9
2022-12-25T07:57:04.053Z,44.9
2022-12-25T07:58:04.030Z,44.9
2022-12-25T07:59:04.047Z,44.9
2022-12-25T08:00:04.017Z,44.9
2022-12-25T08:01:04.142Z,44.8
2022-12-25T08:02:04.205Z,44.8
2022-12-25T08:03:04.298Z,44.8
2022-12-25T08:04:04.161Z,44.8
2022-12-25T08:05:04.244Z,44.8
2022-12-25T08:06:04.106Z,44.8
2022-12-25T08:07:04.045Z,44.8
2022-12-25T08:08:04.030Z,44.9
2022-12-25T08:09:04.065Z,44.9
2022-12-25T08:10:04.027Z,44.9
2022-12-25T08:11:04.049Z,44.9
2022-12-25T08:12:04.018Z,44.9
2022-12-25T08:13:09.049Z,44.9
2022-12-25T08:14:04.033Z,45.0
2022-12-25T08:15:04.075Z,45.0
2022-12-25T08:16:04.016Z,45.0
2022-12-25T08:17:04.112Z,45.0
2022-12-25T08:18:04.024Z,45.0
2022-12-25T08:19:04.035Z,45.1
2022-12-25T08:20:04.035Z,45.1
2022-12-25T08:21:04.118Z,45.2
2022-12-25T08:22:04.043Z,45.2
2022-12-25T08:23:04.050Z,45.2
2022-12-25T08:24:04.024Z,45.2
2022-12-25T08:25:04.059Z,45.3
2022-12-25T08:26:05.443Z,45.3
2022-12-25T08:27:04.230Z,45.4
2022-12-25T08:28:04.057Z,45.4
2022-12-25T08:29:04.094Z,45.5
2022-12-25T08:30:04.020Z,45.5
2022-12-25T08:31:04.158Z,45.6
2022-12-25T08:32:04.023Z,45.6
2022-12-25T08:33:04.094Z,45.7
2022-12-25T08:34:04.159Z,45.6
2022-12-25T08:35:04.084Z,45.9
2022-12-25T08:36:04.057Z,46.0
2022-12-25T08:37:04.076Z,45.8
2022-12-25T08:38:04.026Z,45.6
2022-12-25T08:39:04.073Z,45.9
2022-12-25T08:40:47.952Z,46.1
2022-12-25T08:42:21.885Z,46.9
2022-12-25T08:43:04.035Z,46.0
2022-12-25T08:44:04.011Z,46.0
2022-12-25T08:45:04.086Z,46.1
2022-12-25T08:46:04.071Z,46.2
2022-12-25T08:47:03.953Z,46.1
2022-12-25T08:48:04.150Z,46.7
2022-12-25T08:49:03.960Z,46.9
2022-12-25T08:50:03.927Z,46.6
2022-12-25T08:51:03.956Z,46.6
2022-12-25T08:52:03.947Z,46.6
2022-12-25T08:53:03.962Z,46.6
2022-12-25T08:54:04.031Z,47.0
2022-12-25T08:55:03.976Z,46.5
2022-12-25T08:56:03.961Z,46.4
2022-12-25T08:57:03.980Z,46.4
2022-12-25T08:58:04.869Z,46.3
2022-12-25T08:59:03.961Z,46.4
2022-12-25T09:00:03.969Z,46.4
2022-12-25T09:01:04.162Z,46.7
2022-12-25T09:02:04.008Z,46.8
2022-12-25T09:03:04.095Z,47.0
2022-12-25T09:04:03.988Z,47.2
2022-12-25T09:05:03.982Z,47.2
2022-12-25T09:06:04.053Z,47.2
2022-12-25T09:07:04.045Z,47.2
2022-12-25T09:08:03.942Z,47.2
2022-12-25T09:09:03.993Z,47.2
2022-12-25T09:10:03.954Z,47.1
2022-12-25T09:11:04.017Z,47.2
2022-12-25T09:12:03.963Z,47.2
2022-12-25T09:13:03.963Z,47.3
2022-12-25T09:14:04.004Z,47.3
2022-12-25T09:15:03.980Z,47.4
2022-12-25T09:16:04.041Z,47.5
2022-12-25T09:17:03.998Z,47.5
2022-12-25T09:18:03.973Z,47.5
2022-12-25T09:19:03.979Z,47.6
2022-12-25T09:20:03.934Z,47.5
2022-12-25T09:21:03.970Z,47.4
2022-12-25T09:22:03.946Z,47.5
2022-12-25T09:23:09.948Z,47.6
2022-12-25T09:24:04.061Z,47.7
2022-12-25T09:25:03.974Z,47.7
2022-12-25T09:26:03.956Z,47.7
2022-12-25T09:27:03.989Z,47.7
2022-12-25T09:28:03.945Z,47.7
2022-12-25T09:29:03.999Z,47.8
2022-12-25T09:30:03.986Z,47.8
2022-12-25T09:31:04.048Z,47.8
2022-12-25T09:32:03.960Z,47.8
2022-12-25T09:33:03.992Z,47.8
2022-12-25T09:35:34.919Z,49.3
2022-12-25T09:36:04.588Z,48.3
2022-12-25T09:37:04.623Z,48.1
2022-12-25T09:38:04.589Z,48.0
2022-12-25T09:39:04.615Z,48.0
2022-12-25T09:40:04.651Z,47.9
2022-12-25T09:41:04.617Z,47.8
2022-12-25T09:42:05.513Z,47.8
2022-12-25T09:43:04.731Z,48.0
2022-12-25T09:44:04.609Z,47.9
2022-12-25T09:45:04.587Z,47.8
2022-12-25T09:46:04.727Z,47.7
2022-12-25T09:47:04.610Z,48.1
2022-12-25T09:48:04.643Z,48.0
2022-12-25T09:49:04.596Z,47.9
2022-12-25T09:50:04.644Z,47.9
2022-12-25T09:51:04.589Z,47.9
2022-12-25T09:52:04.658Z,48.0
2022-12-25T09:53:04.605Z,48.0
2022-12-25T09:54:04.667Z,47.9
2022-12-25T09:55:04.651Z,47.9
2022-12-25T09:56:04.653Z,47.8
2022-12-25T09:57:04.603Z,47.8
2022-12-25T09:58:04.653Z,48.2
2022-12-25T09:59:04.601Z,48.7
2022-12-25T10:00:04.619Z,48.3
2022-12-25T10:01:04.620Z,48.3
2022-12-25T10:02:04.827Z,48.2
2022-12-25T10:03:04.734Z,48.2
2022-12-25T10:04:05.724Z,48.1
2022-12-25T10:05:04.639Z,48.0
2022-12-25T10:06:04.651Z,48.0
2022-12-25T10:07:04.888Z,48.3
2022-12-25T10:08:04.658Z,48.5
2022-12-25T10:09:04.620Z,48.3
2022-12-25T10:10:04.682Z,48.3
2022-12-25T10:11:04.608Z,48.2
2022-12-25T10:12:04.651Z,48.2
2022-12-25T10:13:04.625Z,48.1
2022-12-25T10:14:04.657Z,48.1
2022-12-25T10:15:04.619Z,48.0
2022-12-25T10:16:04.695Z,48.0
2022-12-25T10:17:04.596Z,48.0
2022-12-25T10:18:04.635Z,48.0
2022-12-25T10:19:04.641Z,47.9
2022-12-25T10:20:04.648Z,47.9
2022-12-25T10:21:10.984Z,48.0
2022-12-25T10:22:04.928Z,47.9
2022-12-25T10:24:47.729Z,47.9
2022-12-25T10:24:51.717Z,49.8
2022-12-25T10:25:05.720Z,48.8
2022-12-25T10:26:04.760Z,48.0
2022-12-25T10:27:04.906Z,48.0
2022-12-25T10:28:05.005Z,48.0
2022-12-25T10:29:05.475Z,48.2
2022-12-25T10:30:04.685Z,48.2
2022-12-25T10:31:04.859Z,48.2
2022-12-25T10:32:05.483Z,48.2
2022-12-25T10:33:04.729Z,48.2
2022-12-25T10:34:04.680Z,48.3
2022-12-25T10:35:04.605Z,48.3
2022-12-25T10:36:04.652Z,48.3
2022-12-25T10:37:04.606Z,48.2
2022-12-25T10:38:04.649Z,47.2
2022-12-25T10:39:04.617Z,47.0
2022-12-25T10:40:04.698Z,47.4
2022-12-25T10:41:04.638Z,47.3
2022-12-25T10:42:04.647Z,47.3
2022-12-25T10:43:04.610Z,47.2
2022-12-25T10:44:04.644Z,47.3
2022-12-25T10:45:04.651Z,47.3
2022-12-25T10:46:04.723Z,47.7
2022-12-25T10:47:04.670Z,47.5
2022-12-25T10:48:07.501Z,47.4
2022-12-25T10:49:04.620Z,47.3
2022-12-25T10:50:05.752Z,47.3
2022-12-25T10:51:04.634Z,47.2
2022-12-25T10:52:04.784Z,47.5
2022-12-25T10:53:05.565Z,47.3
2022-12-25T10:54:04.673Z,47.2
2022-12-25T10:55:04.644Z,47.3
2022-12-25T10:56:04.774Z,47.4
2022-12-25T10:57:04.659Z,47.0
2022-12-25T10:58:04.693Z,47.4
2022-12-25T10:59:04.630Z,47.3
2022-12-25T11:00:04.659Z,47.4
2022-12-25T11:01:04.643Z,47.3
2022-12-25T11:02:04.741Z,47.2
2022-12-25T11:03:04.787Z,47.1
2022-12-25T11:04:04.841Z,46.9
2022-12-25T11:05:04.629Z,46.8
2022-12-25T11:06:04.798Z,46.9
2022-12-25T11:07:04.623Z,46.8
2022-12-25T11:08:04.671Z,46.8
2022-12-25T11:09:04.639Z,46.7
2022-12-25T11:10:05.983Z,46.7
2022-12-25T11:11:04.692Z,46.7
2022-12-25T11:12:04.660Z,46.7
2022-12-25T11:13:04.654Z,46.6
2022-12-25T11:14:04.688Z,46.6
2022-12-25T11:15:04.619Z,46.5
2022-12-25T11:16:04.743Z,46.7
2022-12-25T11:17:13.061Z,46.7
2022-12-25T11:18:53.359Z,48.3
2022-12-25T11:19:04.121Z,48.0
2022-12-25T11:20:04.119Z,47.3
2022-12-25T11:21:04.033Z,47.1
2022-12-25T11:22:04.159Z,47.2
2022-12-25T11:23:04.793Z,47.1
2022-12-25T11:24:04.355Z,47.1
2022-12-25T11:25:05.003Z,47.0
2022-12-25T11:26:04.071Z,47.0
2022-12-25T11:27:04.041Z,47.0
2022-12-25T11:28:04.127Z,46.7
2022-12-25T11:29:04.046Z,46.7
2022-12-25T11:30:04.439Z,46.8
2022-12-25T11:31:04.144Z,47.0
2022-12-25T11:32:04.057Z,47.1
2022-12-25T11:33:04.062Z,47.2
2022-12-25T11:34:04.127Z,47.3
2022-12-25T11:35:04.052Z,47.2
2022-12-25T11:36:05.406Z,47.2
2022-12-25T11:37:04.034Z,47.2
2022-12-25T11:38:04.081Z,47.2
2022-12-25T11:39:04.036Z,47.2
2022-12-25T11:40:04.100Z,47.2
2022-12-25T11:41:04.035Z,47.2
2022-12-25T11:42:04.758Z,47.1
2022-12-25T11:43:08.039Z,47.1
2022-12-25T11:44:04.043Z,47.2
2022-12-25T11:45:04.200Z,47.1
2022-12-25T11:46:04.383Z,47.1
2022-12-25T11:47:04.118Z,47.1
2022-12-25T11:48:04.052Z,47.1
2022-12-25T11:49:04.087Z,47.1
2022-12-25T11:50:04.026Z,47.2
2022-12-25T11:51:04.072Z,47.2
2022-12-25T11:52:04.078Z,47.2
2022-12-25T11:53:04.072Z,47.1
2022-12-25T11:54:05.099Z,47.2
2022-12-25T11:55:04.070Z,47.2
2022-12-25T11:56:04.043Z,47.2
2022-12-25T11:57:04.078Z,47.2
2022-12-25T11:58:10.804Z,47.4
2022-12-25T11:59:04.489Z,47.3
2022-12-25T12:00:04.543Z,47.3
2022-12-25T12:01:04.531Z,47.3
2022-12-25T12:02:04.621Z,47.3
2022-12-25T12:03:04.591Z,47.3
2022-12-25T12:04:04.578Z,47.3
2022-12-25T12:05:04.488Z,47.3
2022-12-25T12:06:04.515Z,47.3
2022-12-25T12:07:04.496Z,47.3
2022-12-25T12:08:04.533Z,47.2
2022-12-25T12:09:04.491Z,47.2
2022-12-25T12:10:04.559Z,47.2
2022-12-25T12:11:04.488Z,47.1
2022-12-25T12:12:04.525Z,47.1
2022-12-25T12:13:04.487Z,47.0
2022-12-25T12:14:04.643Z,47.0
2022-12-25T12:15:05.468Z,46.9
2022-12-25T12:16:04.621Z,46.8
2022-12-25T12:17:04.514Z,46.7
2022-12-25T12:18:04.524Z,46.7
2022-12-25T12:19:04.513Z,46.8
2022-12-25T12:20:04.525Z,46.7
2022-12-25T12:21:04.506Z,46.8
2022-12-25T12:22:04.558Z,46.8
2022-12-25T12:23:04.555Z,46.7
2022-12-25T12:24:04.579Z,46.7
2022-12-25T12:25:04.515Z,46.6
2022-12-25T12:26:04.579Z,46.3
2022-12-25T12:27:04.499Z,46.2
2022-12-25T12:28:05.715Z,46.2
2022-12-25T12:29:04.494Z,46.5
2022-12-25T12:30:04.531Z,46.3
2022-12-25T12:31:04.551Z,46.3
2022-12-25T12:32:04.762Z,46.2
2022-12-25T12:33:04.493Z,46.1
2022-12-25T12:34:04.707Z,46.1
2022-12-25T12:35:04.521Z,46.0
2022-12-25T12:36:04.594Z,46.0
2022-12-25T12:37:04.528Z,46.2
2022-12-25T12:38:04.563Z,46.5
2022-12-25T12:39:04.567Z,46.7
2022-12-25T12:40:04.580Z,46.0
2022-12-25T12:41:04.534Z,45.1
2022-12-25T12:42:05.510Z,45.0
2022-12-25T12:43:04.534Z,45.1
2022-12-25T12:44:04.559Z,45.3
2022-12-25T12:45:04.504Z,45.1
2022-12-25T12:46:04.610Z,45.2
2022-12-25T12:47:04.778Z,45.4
2022-12-25T12:48:04.526Z,45.4
2022-12-25T12:49:04.501Z,45.5
2022-12-25T12:50:04.634Z,45.5
2022-12-25T12:51:04.514Z,45.6
2022-12-25T12:52:04.610Z,45.5
2022-12-25T12:53:04.543Z,45.6
2022-12-25T12:54:04.527Z,45.6
2022-12-25T12:56:26.441Z,45.9
2022-12-25T12:56:30.419Z,47.9
2022-12-25T12:57:04.548Z,46.2
2022-12-25T12:58:04.582Z,46.0
2022-12-25T12:59:04.506Z,46.0
2022-12-25T13:00:10.764Z,46.0
2022-12-25T13:01:04.533Z,46.0
2022-12-25T13:02:04.713Z,46.0
2022-12-25T13:03:04.579Z,45.9
2022-12-25T13:04:04.625Z,45.9
2022-12-25T13:05:04.508Z,45.9
2022-12-25T13:06:04.551Z,46.0
2022-12-25T13:07:04.540Z,46.1
2022-12-25T13:08:04.569Z,46.2
2022-12-25T13:09:04.509Z,46.3
2022-12-25T13:10:04.600Z,46.4
2022-12-25T13:11:04.509Z,46.5
2022-12-25T13:12:04.558Z,46.5
2022-12-25T13:13:04.518Z,46.6
2022-12-25T13:14:04.531Z,46.6
2022-12-25T13:15:04.506Z,46.7
2022-12-25T13:16:04.591Z,46.7
2022-12-25T13:17:04.624Z,46.8
2022-12-25T13:18:04.562Z,46.8
2022-12-25T13:19:04.533Z,46.9
2022-12-25T13:20:04.545Z,46.9
2022-12-25T13:21:04.519Z,46.9
2022-12-25T13:22:04.689Z,46.9
2022-12-25T13:23:05.489Z,46.9